Time;durP1;ratioP1;P1;durP2;ratioP2;P2;SDS_P1;SDS_P2;PMS_P1;PMS_P2;Temp;Humidity;BMP_temperature;BMP_pressure;BME280_temperature;BME280_humidity;BME280_pressure;Samples;Min_cycle;Max_cycle;Signal;HPM_P1;HPM_P2
2023/11/02 00:01:55;;;;;;;6.90;3.25;;;18.70;91.70;;;;;;10509178;28;20058;-50
2023/11/02 00:06:57;;;;;;;7.10;3.28;;;18.50;90.90;;;;;;10507528;28;20044;-31
2023/11/02 00:12:02;;;;;;;5.38;2.97;;;18.70;91.30;;;;;;10509525;28;20040;-34
2023/11/02 00:17:35;;;;;;;11.95;4.88;;;18.00;92.70;;;;;;10509790;28;20048;-36
2023/11/02 00:22:44;;;;;;;;;;;18.50;92.30;;;;;;10511430;28;20047;-42
2023/11/02 00:27:46;;;;;;;7.55;2.70;;;18.60;91.60;;;;;;10511586;28;19923;-29
2023/11/02 00:32:47;;;;;;;7.53;3.10;;;18.40;92.30;;;;;;10517948;28;20089;-36
2023/11/02 00:37:51;;;;;;;7.20;3.07;;;18.40;92.60;;;;;;10519010;28;20127;-40
2023/11/02 00:42:53;;;;;;;5.13;2.65;;;18.40;91.60;;;;;;10520217;28;20110;-45
2023/11/02 00:47:55;;;;;;;7.28;3.10;;;18.20;92.00;;;;;;10515023;28;20051;-31
2023/11/02 00:52:58;;;;;;;7.20;3.40;;;18.30;91.80;;;;;;10517482;28;20109;-38
2023/11/02 00:58:03;;;;;;;6.47;3.15;;;18.30;92.30;;;;;;10515127;28;20055;-35
2023/11/02 01:03:05;;;;;;;5.28;2.88;;;18.20;92.70;;;;;;10517220;28;20113;-34
2023/11/02 01:08:10;;;;;;;6.80;3.17;;;18.20;92.40;;;;;;10515425;28;20128;-34
2023/11/02 01:13:18;;;;;;;9.05;4.65;;;18.40;91.90;;;;;;10513967;28;20129;-35
2023/11/02 01:18:22;;;;;;;6.15;3.22;;;18.40;91.70;;;;;;10518060;28;20126;-38
2023/11/02 01:23:27;;;;;;;10.57;3.97;;;18.40;91.50;;;;;;10520048;28;20036;-39
2023/11/02 01:28:50;;;;;;;7.80;3.17;;;18.40;91.70;;;;;;10520364;28;20048;-31
2023/11/02 01:33:59;;;;;;;;;;;18.30;91.70;;;;;;10520256;28;20044;-37
2023/11/02 01:39:22;;;;;;;8.45;4.50;;;18.50;90.90;;;;;;10515752;28;20009;-35
2023/11/02 01:44:38;;;;;;;7.38;3.53;;;18.60;90.80;;;;;;10514150;27;20051;-35
2023/11/02 01:49:51;;;;;;;9.10;4.53;;;18.30;91.60;;;;;;10514955;28;20032;-38
2023/11/02 01:54:57;;;;;;;;;;;18.40;91.50;;;;;;10517214;28;20047;-31
2023/11/02 02:00:05;;;;;;;10.98;4.07;;;18.10;91.30;;;;;;10517560;28;19928;-37
2023/11/02 02:05:14;;;;;;;7.53;3.90;;;18.50;91.00;;;;;;10523123;28;20036;-29
2023/11/02 02:10:26;;;;;;;11.73;5.05;;;18.40;90.70;;;;;;10518306;28;20091;-33
2023/11/02 02:15:33;;;;;;;7.63;3.27;;;18.20;91.60;;;;;;10510591;28;20085;-32
2023/11/02 02:20:38;;;;;;;6.90;3.55;;;17.90;90.70;;;;;;10515906;28;20435;-35
2023/11/02 02:25:50;;;;;;;7.55;3.53;;;18.20;91.60;;;;;;10519715;28;20044;-34
2023/11/02 02:31:16;;;;;;;9.77;4.85;;;18.40;90.50;;;;;;10517365;28;20043;-35
2023/11/02 02:36:25;;;;;;;7.22;3.22;;;18.40;91.40;;;;;;10518028;28;20134;-29
2023/11/02 02:41:29;;;;;;;6.93;3.42;;;18.30;90.80;;;;;;10518937;28;20431;-38
2023/11/02 02:46:32;;;;;;;7.72;3.55;;;18.50;90.20;;;;;;10514046;28;20097;-35
2023/11/02 02:51:36;;;;;;;;;;;18.30;91.20;;;;;;10514491;28;20539;-34
2023/11/02 02:56:40;;;;;;;8.38;3.33;;;18.30;90.90;;;;;;10518834;28;19920;-42
2023/11/02 03:01:44;;;;;;;6.88;2.70;;;18.30;90.70;;;;;;10520045;28;20055;-34
2023/11/02 03:06:51;;;;;;;5.57;2.92;;;18.20;91.10;;;;;;10513496;28;20070;-31
2023/11/02 03:11:58;;;;;;;5.78;2.85;;;18.40;90.10;;;;;;10516975;28;20040;-37
2023/11/02 03:17:05;;;;;;;5.50;2.80;;;18.50;90.00;;;;;;10512702;28;20502;-42
2023/11/02 03:22:13;;;;;;;4.50;2.05;;;18.40;90.50;;;;;;10515866;28;20156;-35
2023/11/02 03:27:22;;;;;;;6.20;2.50;;;18.00;90.70;;;;;;10515981;28;20113;-34
2023/11/02 03:32:30;;;;;;;7.85;2.33;;;18.10;91.00;;;;;;10513637;28;20040;-30
2023/11/02 03:37:40;;;;;;;6.47;2.63;;;17.90;91.70;;;;;;10514149;28;20040;-30
2023/11/02 03:42:50;;;;;;;5.18;2.50;;;18.20;91.10;;;;;;10514048;28;20269;-31
2023/11/02 03:48:00;;;;;;;6.28;2.58;;;18.30;90.70;;;;;;10514718;28;20056;-35
2023/11/02 03:53:11;;;;;;;6.65;2.17;;;18.50;90.20;;;;;;10513369;28;20044;-38
2023/11/02 04:15:30;;;;;;;3.28;1.60;;;18.20;90.20;;;;;;10513120;27;1267444;-39
2023/11/02 04:20:31;;;;;;;6.68;1.30;;;18.20;90.30;;;;;;10560670;28;20097;-38
2023/11/02 04:25:33;;;;;;;5.53;2.08;;;18.20;88.50;;;;;;10558433;28;20039;-38
2023/11/02 04:30:37;;;;;;;5.00;1.70;;;18.20;90.50;;;;;;10553065;28;20897;-34
2023/11/02 04:35:39;;;;;;;3.22;1.80;;;18.00;89.20;;;;;;10558665;28;20155;-33
2023/11/02 04:40:41;;;;;;;3.10;1.33;;;18.30;88.90;;;;;;10560669;28;20117;-36
2023/11/02 04:45:44;;;;;;;3.23;1.37;;;18.30;90.20;;;;;;10560006;28;20481;-38
2023/11/02 04:50:47;;;;;;;2.55;1.10;;;18.10;90.60;;;;;;10557594;28;20534;-40
2023/11/02 04:55:49;;;;;;;2.72;1.23;;;17.90;90.40;;;;;;10560616;28;20105;-35
2023/11/02 05:00:52;;;;;;;4.20;1.55;;;18.10;90.50;;;;;;10556640;28;20098;-39
2023/11/02 05:05:54;;;;;;;2.30;1.38;;;18.30;90.50;;;;;;10557498;28;20075;-30
2023/11/02 05:10:56;;;;;;;5.20;1.33;;;18.00;90.70;;;;;;10559081;28;20047;-29
2023/11/02 05:15:59;;;;;;;2.40;1.20;;;17.90;90.80;;;;;;10553455;28;20048;-36
2023/11/02 05:21:01;;;;;;;2.17;1.00;;;18.10;87.60;;;;;;10554597;28;20472;-38
2023/11/02 05:26:03;;;;;;;1.95;1.00;;;18.00;91.10;;;;;;10530596;28;20072;-32
2023/11/02 05:31:06;;;;;;;;;;;18.10;90.60;;;;;;10524598;28;20051;-39
2023/11/02 05:36:09;;;;;;;1.35;1.02;;;18.20;89.80;;;;;;10527932;28;19973;-30
2023/11/02 05:41:11;;;;;;;2.95;0.90;;;17.80;90.60;;;;;;10529587;28;20126;-36
2023/11/02 05:46:14;;;;;;;1.03;0.60;;;17.90;90.40;;;;;;10530044;28;20078;-39
2023/11/02 05:51:16;;;;;;;1.95;0.90;;;18.20;90.40;;;;;;10523542;28;20116;-30
2023/11/02 05:56:18;;;;;;;1.65;0.90;;;17.80;91.60;;;;;;10524320;28;20043;-49
2023/11/02 06:01:21;;;;;;;1.58;0.80;;;18.10;90.80;;;;;;10520409;28;20048;-37
2023/11/02 06:06:23;;;;;;;2.38;1.20;;;17.70;91.40;;;;;;10521484;28;20117;-39
2023/11/02 06:11:26;;;;;;;2.17;0.80;;;18.10;91.20;;;;;;10522037;28;20642;-33
2023/11/02 06:16:29;;;;;;;2.17;0.93;;;17.80;91.40;;;;;;10525757;28;20504;-37
2023/11/02 06:21:31;;;;;;;3.45;0.90;;;17.60;92.60;;;;;;10520560;28;20048;-34
2023/11/02 06:26:33;;;;;;;1.60;0.83;;;17.70;92.40;;;;;;10526464;28;20403;-43
2023/11/02 06:31:36;;;;;;;2.20;0.70;;;18.10;91.80;;;;;;10526543;28;20043;-31
2023/11/02 06:36:38;;;;;;;1.60;0.60;;;18.10;91.50;;;;;;10518189;28;20056;-35
2023/11/02 06:41:41;;;;;;;2.13;0.70;;;18.00;91.00;;;;;;10520056;28;20043;-35
2023/11/02 06:46:44;;;;;;;1.80;0.65;;;18.10;91.50;;;;;;10522892;28;20047;-37
2023/11/02 06:51:47;;;;;;;1.13;0.40;;;18.20;91.60;;;;;;10519941;28;20449;-33
2023/11/02 06:56:49;;;;;;;1.52;0.93;;;17.50;92.00;;;;;;10519889;28;20493;-37
2023/11/02 07:01:53;;;;;;;4.30;1.13;;;18.10;91.80;;;;;;10521660;28;20086;-32
2023/11/02 07:06:54;;;;;;;3.38;1.13;;;18.00;91.80;;;;;;10518292;28;20059;-34
2023/11/02 07:11:56;;;;;;;2.60;1.20;;;18.00;90.80;;;;;;10519954;28;20134;-38
2023/11/02 07:16:59;;;;;;;4.90;1.20;;;18.10;90.90;;;;;;10518244;28;20588;-31
2023/11/02 07:22:01;;;;;;;4.60;1.13;;;17.70;91.90;;;;;;10522441;28;20039;-34
2023/11/02 07:27:03;;;;;;;1.43;1.00;;;18.10;91.60;;;;;;10521545;28;20151;-35
2023/11/02 07:32:07;;;;;;;4.22;1.05;;;17.60;92.70;;;;;;10517605;28;20496;-38
2023/11/02 07:37:09;;;;;;;3.35;1.08;;;18.20;91.70;;;;;;10522207;28;20040;-44
2023/11/02 07:42:11;;;;;;;1.57;0.70;;;17.70;92.20;;;;;;10520420;28;20062;-37
2023/11/02 07:47:14;;;;;;;5.40;1.47;;;18.10;91.80;;;;;;10517655;28;20829;-38
2023/11/02 07:52:15;;;;;;;2.08;1.02;;;18.10;91.10;;;;;;10519399;28;20920;-36
2023/11/02 07:57:18;;;;;;;2.33;0.70;;;18.20;91.70;;;;;;10521281;28;20116;-30
2023/11/02 08:02:21;;;;;;;2.53;0.98;;;17.70;92.60;;;;;;10514316;28;20498;-29
2023/11/02 08:07:23;;;;;;;2.13;1.10;;;18.10;91.50;;;;;;10521611;28;20122;-39
2023/11/02 08:12:25;;;;;;;6.07;1.57;;;18.30;91.40;;;;;;10519945;28;20801;-31
2023/11/02 08:17:28;;;;;;;5.65;1.20;;;18.00;91.70;;;;;;10521439;28;20609;-39
2023/11/02 08:22:30;;;;;;;3.28;0.80;;;18.10;91.40;;;;;;10519871;28;20146;-36
2023/11/02 08:27:33;;;;;;;5.27;0.93;;;18.10;91.90;;;;;;10517443;28;20086;-35
2023/11/02 08:32:36;;;;;;;6.75;1.15;;;18.30;90.70;;;;;;10518357;28;20055;-48
2023/11/02 08:37:38;;;;;;;3.42;0.90;;;18.00;91.70;;;;;;10518114;28;20051;-42
2023/11/02 08:42:40;;;;;;;3.05;1.02;;;18.00;92.30;;;;;;10521086;28;20475;-34
2023/11/02 08:47:44;;;;;;;6.82;1.00;;;18.00;91.90;;;;;;10518368;28;20111;-32
2023/11/02 08:52:45;;;;;;;2.42;0.85;;;18.00;92.00;;;;;;10521407;28;20506;-33
2023/11/02 08:57:47;;;;;;;7.20;0.90;;;17.80;93.20;;;;;;10519733;28;20370;-35
2023/11/02 09:02:51;;;;;;;2.92;0.80;;;18.00;92.30;;;;;;10529021;28;20128;-31
2023/11/02 09:07:53;;;;;;;8.48;0.90;;;18.00;92.60;;;;;;10525720;28;20132;-42
2023/11/02 09:12:54;;;;;;;5.80;1.00;;;18.40;92.20;;;;;;10521942;28;20052;-31
2023/11/02 09:17:57;;;;;;;3.23;1.00;;;17.70;93.30;;;;;;10525468;28;20522;-41
2023/11/02 09:22:59;;;;;;;5.78;0.93;;;17.40;94.00;;;;;;10526892;28;20131;-36
2023/11/02 09:28:01;;;;;;;5.87;1.23;;;17.70;93.60;;;;;;10523960;28;20269;-43
2023/11/02 09:33:04;;;;;;;2.70;0.80;;;17.30;93.60;;;;;;10525493;28;20079;-31
2023/11/02 09:38:06;;;;;;;3.58;1.25;;;17.80;91.70;;;;;;10525593;28;20230;-34
2023/11/02 09:43:08;;;;;;;14.47;2.40;;;17.60;93.60;;;;;;10525060;28;20502;-32
2023/11/02 09:48:12;;;;;;;5.30;1.73;;;18.20;92.60;;;;;;10523980;28;20048;-33
2023/11/02 09:53:15;;;;;;;9.73;1.67;;;17.70;92.40;;;;;;10524340;28;20044;-40
2023/11/02 09:58:19;;;;;;;4.28;1.08;;;17.90;91.50;;;;;;10526276;28;21581;-41
2023/11/02 10:03:22;;;;;;;5.45;1.70;;;18.30;91.70;;;;;;10524258;28;20039;-37
2023/11/02 10:08:25;;;;;;;2.30;1.35;;;17.90;91.90;;;;;;10522139;28;20064;-34
2023/11/02 10:13:27;;;;;;;10.68;1.63;;;18.30;92.00;;;;;;10525883;28;20059;-41
2023/11/02 10:18:30;;;;;;;6.57;0.97;;;18.10;91.70;;;;;;10526246;28;20040;-30
2023/11/02 10:23:48;;;;;;;5.07;1.65;;;18.20;91.10;;;;;;10515965;28;20040;-29
2023/11/02 10:28:52;;;;;;;4.40;0.93;;;18.00;91.20;;;;;;10519590;28;20610;-33
2023/11/02 10:33:55;;;;;;;3.35;1.15;;;18.30;90.20;;;;;;10524889;28;20072;-33
2023/11/02 10:38:57;;;;;;;4.18;1.63;;;18.20;90.40;;;;;;10519685;28;20451;-36
2023/11/02 10:44:05;;;;;;;6.07;1.30;;;18.00;91.50;;;;;;10524202;28;20036;-36
2023/11/02 10:49:11;;;;;;;3.70;1.40;;;18.00;91.10;;;;;;10522052;28;20070;-32
2023/11/02 10:54:22;;;;;;;4.35;1.00;;;18.00;88.30;;;;;;10522975;28;21135;-36
2023/11/02 10:59:24;;;;;;;7.00;1.30;;;18.30;90.90;;;;;;10521735;28;20127;-32
2023/11/02 11:04:28;;;;;;;7.32;1.23;;;18.30;90.90;;;;;;10521200;28;20043;-47
2023/11/02 11:09:31;;;;;;;4.93;1.13;;;18.30;91.30;;;;;;10526918;28;20075;-32
2023/11/02 11:14:35;;;;;;;8.18;1.38;;;18.50;90.80;;;;;;10523056;28;20094;-55
2023/11/02 11:19:38;;;;;;;3.88;0.90;;;18.10;90.30;;;;;;10520089;28;20585;-30
2023/11/02 11:24:40;;;;;;;6.05;1.40;;;18.50;90.20;;;;;;10526708;28;20040;-35
2023/11/02 11:29:43;;;;;;;4.28;1.10;;;18.00;90.40;;;;;;10520255;28;20044;-39
2023/11/02 11:35:09;;;;;;;10.05;1.33;;;18.30;90.60;;;;;;10516047;28;20058;-29
2023/11/02 11:40:36;;;;;;;6.07;1.20;;;17.10;90.80;;;;;;10519489;28;20472;-38
2023/11/02 11:45:48;;;;;;;4.25;0.77;;;16.00;93.40;;;;;;10522451;28;20101;-40
2023/11/02 11:50:52;;;;;;;5.15;1.58;;;17.00;92.10;;;;;;10515077;28;20055;-33
2023/11/02 11:55:56;;;;;;;9.00;0.80;;;17.30;93.40;;;;;;10517405;28;20059;-33
2023/11/02 12:01:15;;;;;;;2.75;0.80;;;17.60;91.50;;;;;;10518446;28;20719;-32
2023/11/02 12:06:37;;;;;;;3.00;0.68;;;18.10;90.20;;;;;;10521741;28;20338;-31
2023/11/02 12:11:41;;;;;;;6.50;0.98;;;17.50;91.30;;;;;;10515034;28;20048;-35
2023/11/02 12:16:43;;;;;;;3.03;0.90;;;17.80;88.20;;;;;;10520918;28;20051;-39
2023/11/02 12:21:56;;;;;;;4.00;0.95;;;17.90;89.90;;;;;;10522652;28;20147;-40
2023/11/02 12:27:11;;;;;;;;;;;17.40;91.50;;;;;;10517828;28;20138;-37
2023/11/02 12:32:13;;;;;;;6.68;0.98;;;18.00;90.40;;;;;;10518596;28;19920;-35
2023/11/02 12:37:16;;;;;;;2.37;0.77;;;17.90;91.00;;;;;;10527605;28;20040;-39
2023/11/02 12:42:18;;;;;;;2.33;0.65;;;17.70;91.00;;;;;;10529307;28;20452;-34
2023/11/02 12:47:20;;;;;;;1.73;0.68;;;17.90;91.10;;;;;;10528835;28;20055;-46
2023/11/02 12:52:23;;;;;;;2.97;0.83;;;17.80;90.80;;;;;;10530577;28;20139;-34
2023/11/02 12:57:25;;;;;;;4.35;1.00;;;17.40;91.90;;;;;;10519769;28;20088;-30
2023/11/02 13:02:27;;;;;;;3.08;0.60;;;17.10;90.40;;;;;;10534597;28;20437;-31
2023/11/02 13:07:33;;;;;;;4.03;1.17;;;17.00;92.40;;;;;;10524987;28;20123;-35
2023/11/02 13:12:35;;;;;;;1.70;0.65;;;17.00;93.80;;;;;;10522952;28;20051;-36
2023/11/02 13:17:38;;;;;;;1.40;0.70;;;17.50;91.30;;;;;;10528039;28;20052;-33
2023/11/02 13:22:47;;;;;;;15.80;1.80;;;16.80;93.80;;;;;;10522822;28;20050;-28
2023/11/02 13:27:49;;;;;;;1.88;0.80;;;16.50;95.50;;;;;;10525777;28;20185;-25
2023/11/02 13:32:54;;;;;;;7.67;0.93;;;16.90;93.90;;;;;;10525688;28;20138;-38
2023/11/02 13:37:57;;;;;;;4.03;0.80;;;17.20;93.70;;;;;;10521572;28;20047;-33
2023/11/02 13:43:00;;;;;;;1.33;0.70;;;17.00;92.60;;;;;;10525741;28;20059;-36
2023/11/02 13:48:02;;;;;;;3.95;0.52;;;17.10;93.90;;;;;;10529111;28;20044;-37
2023/11/02 13:53:07;;;;;;;1.95;0.60;;;16.10;91.90;;;;;;10530385;28;20050;-38
2023/11/02 13:58:09;;;;;;;2.08;0.60;;;16.60;95.70;;;;;;10514366;28;20056;-29
2023/11/02 14:03:11;;;;;;;3.35;0.50;;;16.60;95.10;;;;;;10528900;28;20036;-38
2023/11/02 14:08:14;;;;;;;14.20;0.73;;;15.80;95.80;;;;;;10527589;28;20044;-40
2023/11/02 14:13:17;;;;;;;2.97;0.82;;;16.50;95.70;;;;;;10525539;28;20048;-32
2023/11/02 14:18:19;;;;;;;4.53;0.65;;;15.10;94.00;;;;;;10520547;28;20048;-34
2023/11/02 14:23:22;;;;;;;2.05;0.77;;;15.50;96.50;;;;;;10526763;28;20527;-35
2023/11/02 14:28:24;;;;;;;2.45;0.82;;;14.60;98.40;;;;;;10516227;28;20040;-34
2023/11/02 14:33:26;;;;;;;3.63;0.93;;;15.60;96.10;;;;;;10519392;28;20161;-39
2023/11/02 14:38:29;;;;;;;1.40;0.63;;;15.40;93.30;;;;;;10522159;28;20687;-38
2023/11/02 14:43:31;;;;;;;3.67;0.60;;;15.30;99.90;;;;;;10525023;28;20047;-40
2023/11/02 14:48:33;;;;;;;2.13;0.53;;;15.80;98.30;;;;;;10518030;28;20503;-38
2023/11/02 14:53:37;;;;;;;1.35;0.55;;;15.20;93.40;;;;;;10521896;28;20047;-39
2023/11/02 14:58:39;;;;;;;0.68;0.40;;;15.20;98.30;;;;;;10526213;28;20048;-35
2023/11/02 15:03:41;;;;;;;2.78;0.73;;;14.90;96.80;;;;;;10520705;28;20562;-43
2023/11/02 15:08:44;;;;;;;1.60;0.70;;;15.30;98.90;;;;;;10517653;28;20071;-36
2023/11/02 15:13:46;;;;;;;1.55;0.63;;;14.90;99.90;;;;;;10519251;28;20067;-34
2023/11/02 15:18:48;;;;;;;1.25;0.40;;;15.90;94.40;;;;;;10520373;28;20075;-36
2023/11/02 15:23:52;;;;;;;8.27;0.83;;;15.40;96.10;;;;;;10519673;28;20044;-30
2023/11/02 15:28:56;;;;;;;2.25;0.40;;;14.80;99.90;;;;;;10520721;28;20504;-36
2023/11/02 15:33:58;;;;;;;1.10;0.75;;;15.40;98.80;;;;;;10523786;28;20062;-43
2023/11/02 15:39:02;;;;;;;1.52;0.60;;;14.40;99.90;;;;;;10519224;28;20044;-32
2023/11/02 15:44:04;;;;;;;0.73;0.40;;;14.80;99.90;;;;;;10520090;28;20075;-37
2023/11/02 15:49:06;;;;;;;1.47;0.47;;;15.50;97.60;;;;;;10524477;28;20073;-43
2023/11/02 15:54:09;;;;;;;3.45;0.52;;;14.60;97.50;;;;;;10520757;28;21081;-33
2023/11/02 15:59:13;;;;;;;6.13;0.80;;;14.60;99.90;;;;;;10482597;28;23862;-29
2023/11/02 16:04:15;;;;;;;4.82;0.60;;;15.50;99.90;;;;;;10483274;28;20143;-27
2023/11/02 16:09:18;;;;;;;5.10;0.65;;;14.40;99.90;;;;;;10485954;28;20040;-33
2023/11/02 16:14:20;;;;;;;4.22;0.70;;;14.60;99.20;;;;;;10485890;28;20132;-35
2023/11/02 16:19:22;;;;;;;2.78;0.60;;;14.30;99.90;;;;;;10482517;28;20182;-34
2023/11/02 16:24:25;;;;;;;11.20;0.70;;;14.90;99.90;;;;;;10488638;28;20045;-26
2023/11/02 16:29:27;;;;;;;3.50;0.68;;;14.40;99.30;;;;;;10483134;28;20060;-33
2023/11/02 16:34:29;;;;;;;2.72;0.60;;;14.10;99.90;;;;;;10489330;28;20066;-35
2023/11/02 16:39:33;;;;;;;6.35;1.73;;;14.60;98.20;;;;;;10488891;28;20050;-38
2023/11/02 16:44:35;;;;;;;3.90;0.50;;;13.70;99.90;;;;;;10485596;28;20040;-38
2023/11/02 16:49:37;;;;;;;3.38;0.50;;;13.60;99.90;;;;;;10483100;28;20125;-43
2023/11/02 16:54:40;;;;;;;0.85;0.52;;;13.50;99.90;;;;;;10487008;28;20066;-35
2023/11/02 16:59:42;;;;;;;1.38;0.32;;;13.90;99.90;;;;;;10480903;28;20474;-37
2023/11/02 17:04:44;;;;;;;1.75;0.55;;;14.70;99.90;;;;;;10486251;28;20044;-33
2023/11/02 17:09:47;;;;;;;5.63;0.98;;;13.50;99.90;;;;;;10481134;28;20125;-29
2023/11/02 17:14:49;;;;;;;3.13;0.50;;;13.10;99.90;;;;;;10484984;28;20055;-30
2023/11/02 17:19:51;;;;;;;2.15;0.60;;;12.90;99.90;;;;;;10483715;28;20036;-32
2023/11/02 17:24:54;;;;;;;2.20;0.90;;;13.10;99.90;;;;;;10490546;28;20052;-47
2023/11/02 17:29:56;;;;;;;4.88;0.80;;;12.30;99.90;;;;;;10485730;28;20041;-28
2023/11/02 17:34:58;;;;;;;3.40;0.73;;;12.00;99.90;;;;;;10487588;28;20072;-38
2023/11/02 17:40:02;;;;;;;1.08;0.65;;;12.10;99.90;;;;;;10494552;28;20117;-37
2023/11/02 17:45:04;;;;;;;1.42;0.60;;;14.00;99.90;;;;;;10489942;28;21036;-39
2023/11/02 17:50:09;;;;;;;1.58;0.50;;;14.60;99.90;;;;;;10492272;28;20041;-30
2023/11/02 17:55:12;;;;;;;2.70;0.38;;;14.20;99.90;;;;;;10490724;28;20052;-29
2023/11/02 18:00:15;;;;;;;2.38;0.55;;;15.20;99.90;;;;;;10481643;28;20731;-44
2023/11/02 18:05:19;;;;;;;;;;;13.20;99.90;;;;;;10491669;28;20074;-30
2023/11/02 18:10:22;;;;;;;3.28;0.95;;;14.00;99.90;;;;;;10486746;28;20424;-30
2023/11/02 18:15:25;;;;;;;3.30;0.55;;;14.40;99.90;;;;;;10492593;28;20044;-47
2023/11/02 18:20:26;;;;;;;2.83;0.70;;;13.80;99.90;;;;;;10492340;28;20037;-34
2023/11/02 18:25:32;;;;;;;1.55;0.45;;;14.70;99.90;;;;;;10488625;28;20047;-34
2023/11/02 18:30:35;;;;;;;2.45;0.73;;;13.90;99.90;;;;;;10487667;28;20483;-31
2023/11/02 18:35:36;;;;;;;3.30;0.65;;;12.90;99.90;;;;;;10490850;28;20035;-31
2023/11/02 18:40:45;;;;;;;4.97;1.80;;;13.10;99.90;;;;;;10494580;28;20481;-30
2023/11/02 18:45:48;;;;;;;2.78;0.82;;;12.60;99.90;;;;;;10492024;28;20063;-33
2023/11/02 18:50:50;;;;;;;3.55;1.00;;;12.50;99.90;;;;;;10490975;28;20123;-32
2023/11/02 18:55:53;;;;;;;0.77;0.68;;;12.30;99.90;;;;;;10491134;28;20115;-32
2023/11/02 19:00:55;;;;;;;3.47;0.80;;;12.90;99.90;;;;;;10489664;28;20039;-36
2023/11/02 19:05:57;;;;;;;8.50;1.40;;;12.10;99.90;;;;;;10484437;28;20053;-30
2023/11/02 19:11:04;;;;;;;4.87;0.77;;;12.80;99.90;;;;;;10484905;28;20139;-45
2023/11/02 19:16:07;;;;;;;3.78;1.25;;;13.30;99.90;;;;;;10492151;28;20506;-36
2023/11/02 19:21:09;;;;;;;2.90;1.00;;;11.70;99.90;;;;;;10494150;28;20137;-35
2023/11/02 19:26:16;;;;;;;3.58;0.70;;;12.00;99.90;;;;;;10490617;28;20109;-41
2023/11/02 19:31:18;;;;;;;1.05;0.55;;;13.20;99.90;;;;;;10484023;28;20533;-34
2023/11/02 19:36:19;;;;;;;1.60;0.60;;;12.60;99.90;;;;;;10491856;28;20052;-32
2023/11/02 19:41:25;;;;;;;5.55;0.70;;;12.10;99.90;;;;;;10490230;28;20113;-33
2023/11/02 19:46:27;;;;;;;14.43;3.80;;;13.60;99.90;;;;;;10495589;28;20476;-43
2023/11/02 19:51:28;;;;;;;5.75;1.50;;;14.00;99.90;;;;;;10470077;28;20581;-35
2023/11/02 19:56:31;;;;;;;5.18;0.75;;;13.00;99.90;;;;;;10481327;28;20068;-34
2023/11/02 20:01:34;;;;;;;7.28;0.70;;;13.60;99.90;;;;;;10485158;28;20095;-34
2023/11/02 20:06:36;;;;;;;5.82;0.82;;;14.40;99.90;;;;;;10485198;28;20052;-33
2023/11/02 20:11:39;;;;;;;3.17;1.23;;;12.80;99.90;;;;;;10484204;28;20131;-32
2023/11/02 20:16:41;;;;;;;2.63;1.25;;;14.40;99.90;;;;;;10488484;28;20166;-33
2023/11/02 20:21:43;;;;;;;1.77;0.65;;;13.60;99.90;;;;;;10498059;28;20556;-38
2023/11/02 20:26:46;;;;;;;5.50;0.60;;;14.20;99.90;;;;;;10489292;28;20043;-33
2023/11/02 20:31:48;;;;;;;4.35;0.93;;;14.10;99.90;;;;;;10489632;28;20494;-35
2023/11/02 20:36:50;;;;;;;2.90;0.85;;;13.70;99.90;;;;;;10492589;28;20048;-30
2023/11/02 20:41:53;;;;;;;3.50;0.90;;;13.20;99.90;;;;;;10493388;28;20125;-33
2023/11/02 20:46:55;;;;;;;5.82;0.80;;;12.70;99.90;;;;;;10486745;28;20043;-32
2023/11/02 20:51:57;;;;;;;1.52;0.70;;;12.30;99.90;;;;;;10484086;28;20465;-33
2023/11/02 20:57:00;;;;;;;1.13;0.70;;;13.50;99.90;;;;;;10495804;28;20127;-38
2023/11/02 21:02:02;;;;;;;6.97;1.33;;;12.70;99.90;;;;;;10498147;28;20682;-29
2023/11/02 21:07:05;;;;;;;2.60;0.90;;;11.90;99.90;;;;;;10499559;28;20560;-31
2023/11/02 21:12:09;;;;;;;6.57;0.77;;;12.20;99.90;;;;;;10499061;28;20051;-30
2023/11/02 21:17:12;;;;;;;2.58;0.93;;;12.80;99.90;;;;;;10492951;28;20070;-36
2023/11/02 21:22:13;;;;;;;5.55;0.85;;;12.30;99.90;;;;;;10495584;28;20051;-32
2023/11/02 21:27:17;;;;;;;3.90;0.80;;;11.80;99.90;;;;;;10495519;28;20624;-39
2023/11/02 21:32:18;;;;;;;6.68;0.80;;;12.60;99.90;;;;;;10497820;28;20186;-28
2023/11/02 21:37:22;;;;;;;4.85;1.17;;;12.00;99.90;;;;;;10492575;28;20056;-31
2023/11/02 21:42:25;;;;;;;3.65;0.57;;;11.90;99.90;;;;;;10494181;28;20132;-31
2023/11/02 21:47:26;;;;;;;2.15;0.80;;;11.50;99.90;;;;;;10484194;28;20036;-43
2023/11/02 21:52:28;;;;;;;4.32;0.82;;;11.40;99.90;;;;;;10499178;28;20044;-34
2023/11/02 21:57:31;;;;;;;10.85;2.30;;;11.80;99.90;;;;;;10491008;28;20067;-32
2023/11/02 22:02:33;;;;;;;4.40;1.05;;;11.90;99.90;;;;;;10498675;28;20048;-33
2023/11/02 22:07:36;;;;;;;3.97;1.05;;;12.50;99.90;;;;;;10496829;28;20047;-36
2023/11/02 22:12:39;;;;;;;4.30;1.30;;;12.20;99.90;;;;;;10496973;28;20056;-37
2023/11/02 22:17:40;;;;;;;11.20;1.95;;;11.70;99.90;;;;;;10497088;28;20594;-34
2023/11/02 22:22:42;;;;;;;9.30;1.42;;;12.00;99.90;;;;;;10502390;28;20052;-40
2023/11/02 22:27:45;;;;;;;17.73;1.73;;;12.30;99.90;;;;;;10502153;28;20076;-30
2023/11/02 22:32:47;;;;;;;9.05;1.38;;;11.50;99.90;;;;;;10489544;28;20052;-36
2023/11/02 22:37:49;;;;;;;9.73;1.70;;;11.90;99.90;;;;;;10489797;28;20075;-30
2023/11/02 22:42:52;;;;;;;10.38;1.70;;;11.50;99.90;;;;;;10495007;28;22106;-34
2023/11/02 22:47:54;;;;;;;9.25;1.55;;;11.70;99.90;;;;;;10478133;28;20669;-35
2023/11/02 22:52:56;;;;;;;7.05;1.45;;;11.50;99.90;;;;;;10489037;28;20072;-36
2023/11/02 22:57:59;;;;;;;12.52;1.52;;;12.00;99.90;;;;;;10491744;28;20051;-35
2023/11/02 23:03:01;;;;;;;8.18;1.35;;;11.40;99.90;;;;;;10491624;28;20036;-38
2023/11/02 23:08:07;;;;;;;7.80;1.55;;;12.00;99.90;;;;;;10494000;28;20047;-32
2023/11/02 23:13:10;;;;;;;3.03;1.08;;;12.00;99.90;;;;;;10500441;28;20056;-30
2023/11/02 23:18:21;;;;;;;8.05;1.38;;;11.10;99.90;;;;;;10488810;28;20076;-33
2023/11/02 23:23:23;;;;;;;3.92;1.20;;;12.50;99.90;;;;;;10490493;28;20059;-36
2023/11/02 23:28:27;;;;;;;8.85;1.40;;;13.00;99.90;;;;;;10487623;28;20485;-30
2023/11/02 23:33:30;;;;;;;3.97;1.23;;;11.50;99.90;;;;;;10494767;28;20781;-30
2023/11/02 23:38:34;;;;;;;14.82;1.23;;;12.00;99.90;;;;;;10500027;28;20477;-30
2023/11/02 23:43:40;;;;;;;8.65;2.10;;;11.70;99.90;;;;;;10491256;28;20063;-32
2023/11/02 23:48:42;;;;;;;14.18;2.25;;;11.30;99.90;;;;;;10495918;28;20477;-30
2023/11/02 23:53:44;;;;;;;8.35;1.35;;;10.40;99.90;;;;;;10488654;28;20035;-29
2023/11/02 23:58:48;;;;;;;8.93;1.73;;;10.60;99.90;;;;;;10492807;28;20055;-33
